createdAt,value
2016-09-30T00:00:03.648Z,0
2016-09-30T00:01:13.922Z,0
2016-09-30T00:02:23.902Z,0
2016-09-30T00:03:34.215Z,0
2016-09-30T00:04:44.199Z,0
2016-09-30T00:05:54.507Z,0
2016-09-30T00:07:04.822Z,0
2016-09-30T00:08:15.120Z,0
2016-09-30T00:09:25.117Z,0
2016-09-30T00:10:35.420Z,0
2016-09-30T00:11:45.718Z,0
2016-09-30T00:12:56.021Z,0
2016-09-30T00:14:06.319Z,0
2016-09-30T00:15:16.627Z,0
2016-09-30T00:16:26.611Z,0
2016-09-30T00:17:36.897Z,0
2016-09-30T00:18:47.200Z,0
2016-09-30T00:19:57.481Z,0
2016-09-30T00:21:07.463Z,0
2016-09-30T00:22:17.792Z,0
2016-09-30T00:23:28.101Z,0
2016-09-30T00:24:38.398Z,0
2016-09-30T00:25:48.727Z,0
2016-09-30T00:26:59.032Z,0
2016-09-30T00:28:09.337Z,0
2016-09-30T00:29:19.652Z,0
2016-09-30T00:30:29.642Z,0
2016-09-30T00:31:39.931Z,0
2016-09-30T00:32:50.213Z,0
2016-09-30T00:34:00.199Z,0
2016-09-30T00:35:10.503Z,0
2016-09-30T00:36:20.804Z,0
2016-09-30T00:37:31.104Z,0
2016-09-30T00:38:41.395Z,0
2016-09-30T00:39:51.379Z,0
2016-09-30T00:41:01.670Z,0
2016-09-30T00:42:11.664Z,0
2016-09-30T00:43:21.957Z,0
2016-09-30T00:44:31.940Z,0
2016-09-30T00:45:42.228Z,0
2016-09-30T00:46:52.517Z,0
2016-09-30T00:48:02.498Z,0
2016-09-30T00:49:12.490Z,0
2016-09-30T00:50:22.787Z,0
2016-09-30T00:51:32.775Z,0
2016-09-30T00:52:43.076Z,0
2016-09-30T00:53:53.371Z,0
2016-09-30T00:55:03.672Z,0
2016-09-30T00:56:13.659Z,0
2016-09-30T00:57:23.322Z,0
2016-09-30T00:58:33.303Z,0
2016-09-30T00:59:43.597Z,0
2016-09-30T01:00:53.898Z,0
2016-09-30T01:02:03.902Z,0
2016-09-30T01:03:13.906Z,0
2016-09-30T01:04:24.196Z,0
2016-09-30T01:05:34.194Z,0
2016-09-30T01:06:43.581Z,0
2016-09-30T01:07:53.882Z,0
2016-09-30T01:09:03.868Z,0
2016-09-30T01:10:14.152Z,0
2016-09-30T01:11:24.467Z,0
2016-09-30T01:12:34.142Z,0
2016-09-30T01:20:05.496Z,0
2016-09-30T01:21:15.492Z,0
2016-09-30T01:22:25.778Z,0
2016-09-30T01:23:36.067Z,0
2016-09-30T01:24:45.751Z,0
2016-09-30T01:25:56.042Z,0
2016-09-30T01:27:06.343Z,0
2016-09-30T01:28:16.642Z,0
2016-09-30T01:29:26.932Z,0
2016-09-30T01:30:36.909Z,0
2016-09-30T01:31:46.596Z,0
2016-09-30T01:32:56.886Z,0
2016-09-30T01:34:06.894Z,0
2016-09-30T01:35:17.201Z,0
2016-09-30T01:36:27.493Z,0
2016-09-30T01:37:37.789Z,0
2016-09-30T01:38:47.764Z,0
2016-09-30T01:39:58.048Z,0
2016-09-30T01:41:08.339Z,0
2016-09-30T01:42:18.612Z,0
2016-09-30T01:43:28.282Z,0
2016-09-30T01:44:37.950Z,0
2016-09-30T01:45:48.239Z,0
2016-09-30T01:46:58.219Z,0
2016-09-30T01:48:08.511Z,0
2016-09-30T01:49:18.793Z,0
2016-09-30T01:50:28.770Z,0
2016-09-30T01:51:39.070Z,0
2016-09-30T01:52:49.358Z,0
2016-09-30T01:53:59.339Z,0
2016-09-30T01:55:09.668Z,0
2016-09-30T01:56:19.969Z,0
2016-09-30T01:57:29.960Z,0
2016-09-30T01:58:39.664Z,0
2016-09-30T01:59:49.954Z,0
2016-09-30T02:00:59.936Z,0
2016-09-30T02:02:10.220Z,0
2016-09-30T02:03:20.523Z,0
2016-09-30T02:04:30.498Z,0
2016-09-30T02:05:40.775Z,0
2016-09-30T02:06:50.754Z,0
2016-09-30T02:08:01.039Z,0
2016-09-30T02:09:11.012Z,0
2016-09-30T02:10:21.303Z,0
2016-09-30T02:11:31.574Z,0
2016-09-30T02:12:41.857Z,0
2016-09-30T02:13:52.152Z,0
2016-09-30T02:15:02.157Z,0
2016-09-30T02:16:12.445Z,0
2016-09-30T02:17:22.426Z,0
2016-09-30T02:18:32.723Z,0
2016-09-30T02:19:42.698Z,0
2016-09-30T02:20:52.684Z,0
2016-09-30T02:22:02.989Z,0
2016-09-30T02:23:13.275Z,0
2016-09-30T02:24:23.008Z,0
2016-09-30T02:25:33.304Z,0
2016-09-30T02:26:43.586Z,0
2016-09-30T02:27:53.886Z,0
2016-09-30T02:29:04.174Z,0
2016-09-30T02:30:14.463Z,0
2016-09-30T02:31:24.449Z,0
2016-09-30T02:32:34.431Z,0
2016-09-30T02:33:44.103Z,0
2016-09-30T02:34:54.104Z,0
2016-09-30T02:36:04.390Z,0
2016-09-30T02:37:14.096Z,0
2016-09-30T02:38:24.063Z,0
2016-09-30T02:39:34.345Z,0
2016-09-30T02:40:44.316Z,0
2016-09-30T02:41:54.603Z,0
2016-09-30T02:43:04.884Z,0
2016-09-30T02:44:14.849Z,0
2016-09-30T02:45:25.148Z,0
2016-09-30T02:46:35.440Z,0
2016-09-30T02:47:45.421Z,0
2016-09-30T02:48:55.391Z,0
2016-09-30T02:50:04.762Z,0
2016-09-30T02:51:14.728Z,0
2016-09-30T02:52:24.993Z,0
2016-09-30T02:53:34.980Z,0
2016-09-30T02:54:45.272Z,0
2016-09-30T02:55:54.933Z,0
2016-09-30T02:57:05.220Z,0
2016-09-30T02:58:15.202Z,0
2016-09-30T02:59:25.486Z,0
2016-09-30T03:00:35.459Z,0
2016-09-30T03:32:27.337Z,0
2016-09-30T03:33:37.290Z,0
2016-09-30T03:34:46.955Z,0
2016-09-30T03:35:57.252Z,0
2016-09-30T03:37:06.913Z,0
2016-09-30T03:38:17.211Z,0
2016-09-30T03:39:27.168Z,0
2016-09-30T03:40:37.139Z,0
2016-09-30T03:41:47.124Z,0
2016-09-30T03:42:57.407Z,0
2016-09-30T03:44:07.383Z,0
2016-09-30T03:45:17.370Z,0
2016-09-30T03:46:27.062Z,0
2016-09-30T03:47:37.344Z,0
2016-09-30T03:48:47.630Z,0
2016-09-30T03:49:57.302Z,0
2016-09-30T03:51:07.597Z,0
2016-09-30T03:52:17.881Z,0
2016-09-30T03:53:27.861Z,0
2016-09-30T03:54:38.153Z,0
2016-09-30T03:55:48.450Z,0
2016-09-30T03:56:58.131Z,0
2016-09-30T03:58:08.098Z,0
2016-09-30T03:59:18.075Z,0
2016-09-30T04:00:28.372Z,0
2016-09-30T04:01:38.663Z,0
2016-09-30T04:02:48.945Z,0
2016-09-30T04:03:59.216Z,0
2016-09-30T04:05:08.880Z,0
2016-09-30T04:06:19.155Z,0
2016-09-30T04:07:29.127Z,0
2016-09-30T04:08:39.114Z,0
2016-09-30T04:09:49.100Z,0
2016-09-30T04:10:59.397Z,0
2016-09-30T04:12:09.387Z,0
2016-09-30T04:13:19.089Z,0
2016-09-30T04:14:29.383Z,0
2016-09-30T04:15:39.667Z,0
2016-09-30T04:16:49.656Z,0
2016-09-30T04:17:59.948Z,0
2016-09-30T04:19:09.940Z,0
2016-09-30T04:20:20.251Z,0
2016-09-30T04:21:30.233Z,0
2016-09-30T04:22:39.925Z,0
2016-09-30T04:23:49.896Z,0
2016-09-30T04:24:59.873Z,0
2016-09-30T04:26:10.160Z,0
2016-09-30T04:27:20.151Z,0
2016-09-30T04:28:30.138Z,0
2016-09-30T04:29:40.431Z,0
2016-09-30T04:30:50.717Z,0
2016-09-30T04:32:01.013Z,0
2016-09-30T04:33:11.310Z,0
2016-09-30T04:34:20.970Z,0
2016-09-30T04:35:31.293Z,0
2016-09-30T04:36:41.280Z,0
2016-09-30T04:37:51.266Z,0
2016-09-30T04:39:01.559Z,0
2016-09-30T04:40:11.840Z,0
2016-09-30T04:41:21.841Z,0
2016-09-30T04:42:31.852Z,0
2016-09-30T04:43:42.140Z,0
2016-09-30T04:44:51.802Z,0
2016-09-30T04:46:02.090Z,0
2016-09-30T04:47:11.763Z,0
2016-09-30T04:48:22.063Z,0
2016-09-30T04:49:32.073Z,0
2016-09-30T04:50:42.365Z,5
2016-09-30T04:51:52.663Z,5
2016-09-30T04:53:02.944Z,5
2016-09-30T04:54:13.235Z,5
2016-09-30T04:55:23.227Z,5
2016-09-30T04:56:33.215Z,5
2016-09-30T04:57:43.184Z,10
2016-09-30T04:58:53.174Z,10
2016-09-30T05:00:03.458Z,10
2016-09-30T05:01:13.761Z,10
2016-09-30T05:02:23.433Z,10
2016-09-30T05:03:33.413Z,15
2016-09-30T05:04:43.710Z,15
2016-09-30T05:05:53.997Z,15
2016-09-30T05:07:03.976Z,15
2016-09-30T05:08:14.270Z,20
2016-09-30T05:09:24.257Z,20
2016-09-30T05:10:33.920Z,20
2016-09-30T05:11:43.881Z,25
2016-09-30T05:12:53.863Z,25
2016-09-30T05:14:03.866Z,25
2016-09-30T05:15:14.151Z,30
2016-09-30T05:16:24.441Z,30
2016-09-30T05:17:34.731Z,30
2016-09-30T05:18:44.401Z,35
2016-09-30T05:19:54.681Z,35
2016-09-30T05:21:04.667Z,40
2016-09-30T05:22:14.968Z,40
2016-09-30T05:23:25.265Z,40
2016-09-30T05:24:35.544Z,40
2016-09-30T05:25:45.838Z,40
2016-09-30T05:26:55.828Z,40
2016-09-30T05:28:06.116Z,45
2016-09-30T05:29:15.778Z,45
2016-09-30T05:30:25.757Z,45
2016-09-30T05:31:36.066Z,50
2016-09-30T05:32:46.347Z,50
2016-09-30T05:33:56.333Z,60
2016-09-30T05:35:06.629Z,55
2016-09-30T05:36:16.607Z,55
2016-09-30T05:37:26.597Z,60
2016-09-30T05:38:36.269Z,60
2016-09-30T05:39:46.559Z,65
2016-09-30T05:40:56.828Z,60
2016-09-30T05:42:06.807Z,65
2016-09-30T05:43:17.094Z,60
2016-09-30T05:44:27.108Z,60
2016-09-30T05:45:37.087Z,60
2016-09-30T05:46:47.363Z,65
2016-09-30T05:47:57.035Z,65
2016-09-30T05:49:07.020Z,70
2016-09-30T05:50:16.727Z,70
2016-09-30T05:51:27.019Z,70
2016-09-30T05:52:37.304Z,80
2016-09-30T05:53:47.598Z,75
2016-09-30T05:54:57.570Z,80
2016-09-30T05:56:07.870Z,80
2016-09-30T05:57:17.843Z,80
2016-09-30T05:58:27.834Z,80
2016-09-30T05:59:37.806Z,80
2016-09-30T06:00:48.094Z,85
2016-09-30T06:01:58.390Z,85
2016-09-30T06:03:08.701Z,90
2016-09-30T06:04:18.987Z,100
2016-09-30T06:05:29.300Z,100
2016-09-30T06:06:39.591Z,105
2016-09-30T06:07:49.574Z,105
2016-09-30T06:08:59.866Z,110
2016-09-30T06:10:10.178Z,115
2016-09-30T06:11:20.496Z,115
2016-09-30T06:12:30.475Z,120
2016-09-30T06:13:40.458Z,120
2016-09-30T06:14:50.428Z,125
2016-09-30T06:16:00.454Z,125
2016-09-30T06:17:10.460Z,125
2016-09-30T06:18:20.437Z,125
2016-09-30T06:19:30.421Z,125
2016-09-30T06:20:40.697Z,130
2016-09-30T06:21:50.687Z,130
2016-09-30T06:23:00.969Z,135
2016-09-30T06:24:11.251Z,135
2016-09-30T06:25:21.557Z,140
2016-09-30T06:26:31.861Z,135
2016-09-30T06:27:41.843Z,140
2016-09-30T06:28:52.129Z,145
2016-09-30T06:30:02.123Z,140
2016-09-30T06:31:12.405Z,145
2016-09-30T06:32:22.389Z,140
2016-09-30T06:33:32.361Z,140
2016-09-30T06:34:42.337Z,130
2016-09-30T06:35:52.334Z,125
2016-09-30T06:37:02.316Z,120
2016-09-30T06:38:12.644Z,120
2016-09-30T06:39:22.940Z,140
2016-09-30T06:40:32.925Z,135
2016-09-30T06:41:42.914Z,140
2016-09-30T06:42:53.215Z,125
2016-09-30T06:44:03.493Z,120
2016-09-30T06:45:13.184Z,135
2016-09-30T06:46:23.485Z,145
2016-09-30T06:47:33.787Z,125
2016-09-30T06:48:44.075Z,115
2016-09-30T06:49:54.359Z,110
2016-09-30T06:51:04.329Z,115
2016-09-30T06:52:14.626Z,115
2016-09-30T06:53:24.295Z,120
2016-09-30T06:54:34.281Z,105
2016-09-30T06:55:43.960Z,120
2016-09-30T06:56:54.256Z,135
2016-09-30T06:58:04.240Z,140
2016-09-30T06:59:14.522Z,125
2016-09-30T07:00:24.501Z,125
2016-09-30T07:01:34.803Z,135
2016-09-30T07:02:45.094Z,125
2016-09-30T07:03:55.080Z,135
2016-09-30T07:05:04.761Z,140
2016-09-30T07:06:15.063Z,120
2016-09-30T07:07:25.051Z,110
2016-09-30T07:08:35.345Z,110
2016-09-30T07:09:45.028Z,120
2016-09-30T07:10:54.700Z,130
2016-09-30T07:12:05.032Z,120
2016-09-30T07:13:15.027Z,115
2016-09-30T07:14:24.999Z,130
2016-09-30T07:15:35.285Z,125
2016-09-30T07:16:45.285Z,115
2016-09-30T07:17:55.255Z,120
2016-09-30T07:19:05.425Z,130
2016-09-30T07:20:15.733Z,150
2016-09-30T07:21:26.025Z,145
2016-09-30T07:22:36.334Z,125
2016-09-30T07:23:46.307Z,135
2016-09-30T07:24:56.598Z,140
2016-09-30T07:26:06.585Z,120
2016-09-30T07:27:16.281Z,105
2016-09-30T07:28:26.433Z,145
2016-09-30T07:29:36.736Z,140
2016-09-30T07:30:46.726Z,150
2016-09-30T07:31:56.417Z,155
2016-09-30T07:33:06.385Z,150
2016-09-30T07:34:15.748Z,155
2016-09-30T07:35:25.743Z,160
2016-09-30T07:36:36.025Z,160
2016-09-30T07:37:46.005Z,160
2016-09-30T07:38:56.293Z,155
2016-09-30T07:40:06.284Z,140
2016-09-30T07:41:16.575Z,145
2016-09-30T07:42:26.878Z,125
2016-09-30T07:43:37.164Z,145
2016-09-30T07:44:47.471Z,155
2016-09-30T07:45:57.753Z,160
2016-09-30T07:47:07.737Z,160
2016-09-30T07:48:18.031Z,165
2016-09-30T07:49:28.350Z,165
2016-09-30T07:50:38.658Z,165
2016-09-30T07:51:48.340Z,165
2016-09-30T07:52:58.327Z,170
2016-09-30T07:54:08.615Z,170
2016-09-30T07:55:18.631Z,170
2016-09-30T07:56:28.932Z,170
2016-09-30T07:57:38.918Z,170
2016-09-30T07:58:48.916Z,175
2016-09-30T07:59:58.948Z,175
2016-09-30T08:01:08.958Z,170
2016-09-30T08:02:19.252Z,175
2016-09-30T08:03:29.245Z,180
2016-09-30T08:04:38.939Z,175
2016-09-30T08:05:48.992Z,180
2016-09-30T08:06:58.984Z,180
2016-09-30T08:08:09.295Z,175
2016-09-30T08:09:19.596Z,180
2016-09-30T08:10:29.577Z,180
2016-09-30T08:11:39.561Z,180
2016-09-30T08:12:49.883Z,180
2016-09-30T08:14:00.181Z,180
2016-09-30T08:15:10.506Z,180
2016-09-30T08:16:20.173Z,180
2016-09-30T08:17:29.863Z,180
2016-09-30T08:18:40.155Z,180
2016-09-30T08:19:50.141Z,180
2016-09-30T08:21:00.123Z,180
2016-09-30T08:22:09.811Z,180
2016-09-30T08:23:19.811Z,185
2016-09-30T08:24:29.804Z,185
2016-09-30T08:25:40.108Z,185
2016-09-30T08:26:50.098Z,185
2016-09-30T08:28:00.391Z,185
2016-09-30T08:29:10.374Z,190
2016-09-30T08:30:20.354Z,190
2016-09-30T08:31:30.649Z,190
2016-09-30T08:32:40.665Z,190
2016-09-30T08:33:50.977Z,190
2016-09-30T08:35:01.269Z,190
2016-09-30T08:36:11.576Z,190
2016-09-30T08:37:21.580Z,195
2016-09-30T08:38:31.576Z,190
2016-09-30T08:39:41.868Z,195
2016-09-30T08:40:52.158Z,195
2016-09-30T08:42:02.154Z,195
2016-09-30T08:43:12.441Z,195
2016-09-30T08:44:22.769Z,195
2016-09-30T08:45:33.068Z,195
2016-09-30T08:46:43.070Z,200
2016-09-30T08:47:52.771Z,200
2016-09-30T08:49:02.776Z,200
2016-09-30T08:50:11.845Z,200
2016-09-30T08:51:21.519Z,200
2016-09-30T08:52:31.516Z,200
2016-09-30T08:53:40.875Z,200
2016-09-30T08:54:50.553Z,190
2016-09-30T08:56:00.265Z,205
2016-09-30T08:57:09.962Z,205
2016-09-30T08:58:19.981Z,205
2016-09-30T08:59:30.299Z,205
2016-09-30T09:00:40.281Z,205
2016-09-30T09:01:50.585Z,205
2016-09-30T09:03:00.888Z,210
2016-09-30T09:04:10.873Z,210
2016-09-30T09:05:21.179Z,215
2016-09-30T09:06:31.169Z,215
2016-09-30T09:07:41.466Z,210
2016-09-30T09:08:51.446Z,210
2016-09-30T09:10:01.137Z,215
2016-09-30T09:11:11.134Z,210
2016-09-30T09:12:21.119Z,215
2016-09-30T09:13:30.826Z,220
2016-09-30T09:14:41.128Z,215
2016-09-30T09:15:51.119Z,220
2016-09-30T09:17:01.663Z,215
2016-09-30T09:18:11.641Z,220
2016-09-30T09:19:21.623Z,220
2016-09-30T09:20:31.665Z,220
2016-09-30T09:21:41.963Z,220
2016-09-30T09:22:52.284Z,225
2016-09-30T09:24:02.571Z,225
2016-09-30T09:25:12.873Z,220
2016-09-30T09:26:23.191Z,220
2016-09-30T09:27:33.186Z,220
2016-09-30T09:28:43.163Z,220
2016-09-30T09:29:53.169Z,225
2016-09-30T09:31:03.168Z,225
2016-09-30T09:32:13.148Z,225
2016-09-30T09:33:22.840Z,225
2016-09-30T09:34:33.129Z,225
2016-09-30T09:35:43.120Z,225
2016-09-30T09:36:53.110Z,225
2016-09-30T09:38:03.099Z,225
2016-09-30T09:39:13.085Z,230
2016-09-30T09:40:23.084Z,230
2016-09-30T09:41:33.071Z,230
2016-09-30T09:42:43.654Z,230
2016-09-30T09:43:53.990Z,230
2016-09-30T09:45:04.276Z,230
2016-09-30T09:46:14.284Z,230
2016-09-30T09:47:24.585Z,230
2016-09-30T09:48:34.267Z,235
2016-09-30T09:49:44.261Z,230
2016-09-30T09:50:54.572Z,235
2016-09-30T09:52:04.570Z,235
2016-09-30T09:53:14.866Z,235
2016-09-30T09:54:25.173Z,235
2016-09-30T09:55:34.553Z,235
2016-09-30T09:56:44.545Z,235
2016-09-30T09:57:54.527Z,235
2016-09-30T09:59:04.845Z,235
2016-09-30T10:00:14.821Z,235
2016-09-30T10:01:24.502Z,235
2016-09-30T10:02:34.795Z,235
2016-09-30T10:03:45.097Z,235
2016-09-30T10:04:55.107Z,235
2016-09-30T10:06:05.330Z,235
2016-09-30T10:07:15.027Z,240
2016-09-30T10:08:25.023Z,240
2016-09-30T10:09:34.700Z,240
2016-09-30T10:10:44.990Z,240
2016-09-30T10:11:54.983Z,235
2016-09-30T10:13:05.015Z,235
2016-09-30T10:14:15.312Z,240
2016-09-30T10:15:25.308Z,235
2016-09-30T10:16:35.607Z,235
2016-09-30T10:17:45.617Z,235
2016-09-30T10:18:55.915Z,240
2016-09-30T10:20:06.222Z,245
2016-09-30T10:21:16.507Z,240
2016-09-30T10:22:26.808Z,240
2016-09-30T10:23:36.811Z,245
2016-09-30T10:24:47.113Z,240
2016-09-30T10:25:57.417Z,240
2016-09-30T10:27:07.753Z,240
2016-09-30T10:28:18.069Z,240
2016-09-30T10:29:27.749Z,235
2016-09-30T10:30:38.060Z,240
2016-09-30T10:31:48.358Z,240
2016-09-30T10:32:58.350Z,195
2016-09-30T10:34:08.074Z,235
2016-09-30T10:35:18.392Z,235
2016-09-30T10:36:28.374Z,235
2016-09-30T10:37:38.687Z,220
2016-09-30T10:38:48.698Z,235
2016-09-30T10:39:59.005Z,215
2016-09-30T10:41:09.317Z,235
2016-09-30T10:42:19.633Z,235
2016-09-30T10:43:29.944Z,235
2016-09-30T10:44:40.245Z,240
2016-09-30T10:45:50.244Z,240
2016-09-30T10:47:00.237Z,240
2016-09-30T10:48:10.532Z,240
2016-09-30T10:49:20.839Z,245
2016-09-30T10:50:31.179Z,240
2016-09-30T10:51:41.196Z,245
2016-09-30T10:52:51.494Z,245
2016-09-30T10:54:02.031Z,250
2016-09-30T10:55:12.026Z,255
2016-09-30T10:56:22.025Z,255
2016-09-30T10:57:32.336Z,260
2016-09-30T10:58:42.342Z,260
2016-09-30T10:59:52.683Z,260
2016-09-30T11:01:02.702Z,260
2016-09-30T11:02:13.023Z,260
2016-09-30T11:03:23.026Z,260
2016-09-30T11:04:33.031Z,260
2016-09-30T11:05:43.334Z,265
2016-09-30T11:06:53.320Z,260
2016-09-30T11:08:03.611Z,260
2016-09-30T11:09:13.322Z,260
2016-09-30T11:10:23.638Z,240
2016-09-30T11:11:33.963Z,250
2016-09-30T11:12:43.957Z,260
2016-09-30T11:13:53.984Z,260
2016-09-30T11:15:03.977Z,255
2016-09-30T11:16:13.655Z,255
2016-09-30T11:17:23.986Z,255
2016-09-30T11:18:33.983Z,255
2016-09-30T11:19:43.657Z,260
2016-09-30T11:20:53.969Z,260
2016-09-30T11:22:04.283Z,265
2016-09-30T11:23:14.576Z,260
2016-09-30T11:24:24.529Z,260
2016-09-30T11:25:34.848Z,260
2016-09-30T11:26:48.309Z,255
2016-09-30T11:27:59.407Z,260
2016-09-30T11:29:09.696Z,255
2016-09-30T11:30:19.999Z,255
2016-09-30T11:31:30.301Z,255
2016-09-30T11:32:39.695Z,255
2016-09-30T11:33:49.990Z,250
2016-09-30T11:34:59.990Z,245
2016-09-30T11:36:09.690Z,215
2016-09-30T11:37:19.989Z,255
2016-09-30T11:38:30.320Z,250
2016-09-30T11:39:40.623Z,250
2016-09-30T11:40:50.640Z,255
2016-09-30T11:42:00.945Z,255
2016-09-30T11:43:11.253Z,255
2016-09-30T11:44:21.265Z,255
2016-09-30T11:45:30.943Z,260
2016-09-30T11:46:41.235Z,260
2016-09-30T11:47:51.531Z,260
2016-09-30T11:49:01.238Z,260
2016-09-30T11:50:11.270Z,250
2016-09-30T11:51:21.585Z,245
2016-09-30T11:52:31.592Z,270
2016-09-30T11:53:41.894Z,270
2016-09-30T11:54:51.896Z,270
2016-09-30T11:56:01.888Z,275
2016-09-30T11:57:12.192Z,275
2016-09-30T11:58:22.467Z,270
2016-09-30T11:59:32.158Z,250
2016-09-30T12:00:42.161Z,250
2016-09-30T12:01:51.846Z,250
2016-09-30T12:03:01.843Z,255
2016-09-30T12:04:11.574Z,255
2016-09-30T12:05:21.587Z,250
2016-09-30T12:06:32.259Z,270
2016-09-30T12:07:42.249Z,280
2016-09-30T12:08:52.561Z,275
2016-09-30T12:10:02.557Z,275
2016-09-30T12:11:12.816Z,270
2016-09-30T12:12:23.125Z,270
2016-09-30T12:13:33.456Z,265
2016-09-30T12:14:43.462Z,265
2016-09-30T12:15:53.447Z,265
2016-09-30T12:17:03.427Z,265
2016-09-30T12:18:13.747Z,265
2016-09-30T12:19:23.741Z,265
2016-09-30T12:20:34.043Z,265
2016-09-30T12:21:44.034Z,265
2016-09-30T12:22:54.353Z,265
2016-09-30T12:24:04.669Z,265
2016-09-30T12:25:14.675Z,265
2016-09-30T12:26:24.372Z,260
2016-09-30T12:27:34.670Z,260
2016-09-30T12:28:44.683Z,255
2016-09-30T12:29:54.372Z,255
2016-09-30T12:31:04.365Z,255
2016-09-30T12:32:14.348Z,250
2016-09-30T12:33:24.732Z,250
2016-09-30T12:34:34.741Z,245
2016-09-30T12:35:44.742Z,245
2016-09-30T12:36:54.741Z,245
2016-09-30T12:38:05.048Z,240
2016-09-30T12:39:15.050Z,240
2016-09-30T12:40:25.362Z,240
2016-09-30T12:41:35.066Z,240
2016-09-30T12:42:45.075Z,240
2016-09-30T12:43:55.375Z,240
2016-09-30T12:45:05.083Z,240
2016-09-30T12:46:15.077Z,240
2016-09-30T12:47:24.748Z,235
2016-09-30T12:48:34.754Z,235
2016-09-30T12:49:45.081Z,240
2016-09-30T12:50:55.074Z,235
2016-09-30T12:52:05.065Z,235
2016-09-30T12:53:15.055Z,235
2016-09-30T12:54:25.370Z,235
2016-09-30T12:55:35.374Z,235
2016-09-30T12:56:45.697Z,235
2016-09-30T12:57:56.003Z,235
2016-09-30T12:59:06.290Z,225
2016-09-30T13:00:16.311Z,235
2016-09-30T13:01:25.981Z,230
2016-09-30T13:02:35.652Z,235
2016-09-30T13:03:45.657Z,220
2016-09-30T13:04:55.953Z,230
2016-09-30T13:06:06.260Z,230
2016-09-30T13:07:16.571Z,230
2016-09-30T13:08:26.885Z,235
2016-09-30T13:09:36.877Z,230
2016-09-30T13:10:47.191Z,220
2016-09-30T13:11:57.482Z,225
2016-09-30T13:13:07.470Z,220
2016-09-30T13:14:17.797Z,225
2016-09-30T13:15:27.798Z,190
2016-09-30T13:16:37.502Z,210
2016-09-30T13:17:47.832Z,225
2016-09-30T13:18:58.170Z,225
2016-09-30T13:20:07.875Z,225
2016-09-30T13:21:17.886Z,225
2016-09-30T13:22:27.559Z,225
2016-09-30T13:23:37.871Z,225
2016-09-30T13:24:47.879Z,225
2016-09-30T13:25:57.870Z,210
2016-09-30T13:27:08.185Z,225
2016-09-30T13:28:18.190Z,225
2016-09-30T13:29:28.490Z,225
2016-09-30T13:30:38.817Z,225
2016-09-30T13:31:48.804Z,225
2016-09-30T13:32:59.105Z,225
2016-09-30T13:34:08.495Z,225
2016-09-30T13:35:18.479Z,225
2016-09-30T13:36:28.460Z,215
2016-09-30T13:37:38.481Z,220
2016-09-30T13:38:48.797Z,200
2016-09-30T13:39:58.812Z,205
2016-09-30T13:41:08.502Z,200
2016-09-30T13:42:18.523Z,195
2016-09-30T13:43:28.225Z,195
2016-09-30T13:44:38.227Z,190
2016-09-30T13:45:48.226Z,185
2016-09-30T13:46:58.541Z,190
2016-09-30T13:48:08.888Z,175
2016-09-30T13:49:18.885Z,150
2016-09-30T13:50:29.189Z,165
2016-09-30T13:51:38.913Z,185
2016-09-30T13:52:48.911Z,175
2016-09-30T13:53:59.212Z,165
2016-09-30T13:55:09.209Z,165
2016-09-30T13:56:19.228Z,180
2016-09-30T13:57:29.542Z,170
2016-09-30T13:58:39.851Z,160
2016-09-30T13:59:49.850Z,150
2016-09-30T14:00:59.845Z,175
2016-09-30T14:02:09.850Z,170
2016-09-30T14:03:20.183Z,185
2016-09-30T14:04:29.888Z,165
2016-09-30T14:05:39.876Z,165
2016-09-30T14:06:49.874Z,160
2016-09-30T14:07:59.555Z,160
2016-09-30T14:09:09.864Z,185
2016-09-30T14:10:20.164Z,195
2016-09-30T14:11:30.178Z,195
2016-09-30T14:12:40.162Z,200
2016-09-30T14:13:50.473Z,210
2016-09-30T14:15:00.812Z,210
2016-09-30T14:16:11.123Z,205
2016-09-30T14:17:21.132Z,205
2016-09-30T14:18:31.128Z,210
2016-09-30T14:19:40.832Z,195
2016-09-30T14:20:50.217Z,165
2016-09-30T14:22:00.271Z,165
2016-09-30T14:23:10.592Z,180
2016-09-30T14:24:20.289Z,175
2016-09-30T14:25:30.585Z,160
2016-09-30T14:26:40.613Z,150
2016-09-30T14:27:50.932Z,155
2016-09-30T14:29:00.941Z,140
2016-09-30T14:30:11.248Z,145
2016-09-30T14:31:21.552Z,145
2016-09-30T14:32:31.542Z,170
2016-09-30T14:33:41.552Z,180
2016-09-30T14:34:51.553Z,190
2016-09-30T14:36:01.545Z,190
2016-09-30T14:37:11.557Z,195
2016-09-30T14:38:21.568Z,195
2016-09-30T14:39:31.857Z,185
2016-09-30T14:40:41.547Z,180
2016-09-30T14:41:51.864Z,170
2016-09-30T14:43:01.559Z,165
2016-09-30T14:44:11.552Z,155
2016-09-30T14:45:21.876Z,145
2016-09-30T14:46:31.561Z,135
2016-09-30T14:47:41.561Z,130
2016-09-30T14:48:51.548Z,125
2016-09-30T14:50:01.554Z,120
2016-09-30T14:51:11.854Z,115
2016-09-30T14:52:21.548Z,110
2016-09-30T14:53:31.548Z,110
2016-09-30T14:54:41.557Z,105
2016-09-30T14:55:51.564Z,105
2016-09-30T14:57:01.545Z,100
2016-09-30T14:58:10.922Z,100
2016-09-30T14:59:20.939Z,100
2016-09-30T15:00:31.246Z,100
2016-09-30T15:01:41.273Z,100
2016-09-30T15:02:51.308Z,100
2016-09-30T15:04:00.714Z,100
2016-09-30T15:05:10.414Z,95
2016-09-30T15:06:20.395Z,95
2016-09-30T15:07:30.096Z,95
2016-09-30T15:08:39.482Z,95
2016-09-30T15:09:49.478Z,90
2016-09-30T15:10:59.491Z,90
2016-09-30T15:12:09.190Z,90
2016-09-30T15:13:19.485Z,90
2016-09-30T15:14:29.792Z,90
2016-09-30T15:15:39.768Z,85
2016-09-30T15:16:49.751Z,85
2016-09-30T15:18:00.059Z,85
2016-09-30T15:19:09.753Z,80
2016-09-30T15:20:19.749Z,80
2016-09-30T15:21:30.062Z,80
2016-09-30T15:22:39.763Z,75
2016-09-30T15:23:49.437Z,75
2016-09-30T15:24:59.748Z,70
2016-09-30T15:26:10.049Z,70
2016-09-30T15:27:20.350Z,70
2016-09-30T15:28:30.347Z,65
2016-09-30T15:29:40.659Z,65
2016-09-30T15:30:50.975Z,60
2016-09-30T15:32:00.963Z,60
2016-09-30T15:33:10.964Z,60
2016-09-30T15:34:20.966Z,55
2016-09-30T15:35:30.977Z,55
2016-09-30T15:36:40.978Z,55
2016-09-30T15:37:50.973Z,50
2016-09-30T15:39:00.958Z,50
2016-09-30T15:40:11.246Z,50
2016-09-30T15:41:20.941Z,50
2016-09-30T15:42:30.941Z,50
2016-09-30T15:43:40.951Z,50
2016-09-30T15:44:51.252Z,50
2016-09-30T15:46:01.563Z,45
2016-09-30T15:47:11.558Z,45
2016-09-30T15:48:21.558Z,45
2016-09-30T15:49:31.865Z,40
2016-09-30T15:50:41.549Z,40
2016-09-30T15:51:51.861Z,40
2016-09-30T15:53:02.415Z,40
2016-09-30T15:54:12.400Z,40
2016-09-30T15:55:22.388Z,35
2016-09-30T15:56:32.388Z,35
2016-09-30T15:57:42.380Z,35
2016-09-30T15:58:52.396Z,35
2016-09-30T16:00:02.378Z,35
2016-09-30T16:01:12.383Z,35
2016-09-30T16:02:22.688Z,35
2016-09-30T16:03:32.684Z,35
2016-09-30T16:04:42.351Z,30
2016-09-30T16:05:52.388Z,30
2016-09-30T16:07:02.714Z,30
2016-09-30T16:08:12.951Z,25
2016-09-30T16:09:22.967Z,25
2016-09-30T16:10:33.263Z,25
2016-09-30T16:11:43.590Z,25
2016-09-30T16:12:53.590Z,20
2016-09-30T16:14:03.885Z,20
2016-09-30T16:15:13.572Z,20
2016-09-30T16:16:23.863Z,15
2016-09-30T16:17:33.558Z,15
2016-09-30T16:18:42.947Z,15
2016-09-30T16:19:53.243Z,15
2016-09-30T16:21:03.555Z,15
2016-09-30T16:22:13.553Z,10
2016-09-30T16:23:23.558Z,10
2016-09-30T16:24:33.861Z,10
2016-09-30T16:25:43.565Z,10
2016-09-30T16:26:53.889Z,5
2016-09-30T16:28:03.910Z,5
2016-09-30T16:29:14.242Z,5
2016-09-30T16:30:24.245Z,5
2016-09-30T16:31:34.544Z,5
2016-09-30T16:32:44.558Z,5
2016-09-30T16:33:53.924Z,5
2016-09-30T16:35:03.914Z,0
2016-09-30T16:36:14.218Z,0
2016-09-30T16:37:24.524Z,0
2016-09-30T16:38:34.850Z,0
2016-09-30T16:39:45.159Z,0
2016-09-30T16:40:54.839Z,0
2016-09-30T16:42:05.161Z,0
2016-09-30T16:43:15.147Z,0
2016-09-30T16:44:24.514Z,0
2016-09-30T16:45:34.505Z,0
2016-09-30T16:46:44.498Z,0
2016-09-30T16:47:54.189Z,0
2016-09-30T16:49:04.182Z,0
2016-09-30T16:50:14.184Z,0
2016-09-30T16:51:24.482Z,0
2016-09-30T16:52:34.467Z,0
2016-09-30T16:53:44.453Z,0
2016-09-30T16:54:54.150Z,0
2016-09-30T16:56:03.842Z,0
2016-09-30T16:57:14.136Z,0
2016-09-30T16:58:24.170Z,0
2016-09-30T16:59:34.178Z,0
2016-09-30T17:00:44.486Z,0
2016-09-30T17:01:54.786Z,0
2016-09-30T17:03:05.112Z,0
2016-09-30T17:04:15.089Z,0
2016-09-30T17:05:25.086Z,0
2016-09-30T17:06:35.068Z,0
2016-09-30T17:07:45.100Z,0